Time;durP1;ratioP1;P1;durP2;ratioP2;P2;SDS_P1;SDS_P2;PMS_P1;PMS_P2;Temp;Humidity;BMP_temperature;BMP_pressure;BME280_temperature;BME280_humidity;BME280_pressure;Samples;Min_cycle;Max_cycle;Signal;HPM_P1;HPM_P2
2023/06/13 00:01:18;;;;;;;17.17;11.63;;;18.60;99.90;;;;;;5014150;28;20727;-69
2023/06/13 00:03:47;;;;;;;20.48;11.65;;;18.60;99.90;;;;;;5012921;28;20208;-70
2023/06/13 00:06:15;;;;;;;19.52;11.38;;;18.70;99.90;;;;;;5014947;28;20174;-69
2023/06/13 00:08:42;;;;;;;15.77;11.40;;;18.60;99.90;;;;;;5013953;28;20171;-69
2023/06/13 00:11:07;;;;;;;18.00;12.15;;;18.60;99.90;;;;;;5013087;28;20178;-70
2023/06/13 00:13:34;;;;;;;17.02;11.52;;;18.60;99.90;;;;;;5012938;28;20210;-70
2023/06/13 00:16:00;;;;;;;18.90;11.35;;;18.60;99.90;;;;;;5013212;28;20171;-70
2023/06/13 00:18:29;;;;;;;16.00;10.80;;;18.60;99.90;;;;;;5016220;28;20193;-69
2023/06/13 00:20:55;;;;;;;20.17;12.68;;;18.60;99.90;;;;;;5032453;28;20177;-69
2023/06/13 00:23:22;;;;;;;16.30;11.75;;;18.60;99.90;;;;;;5016701;28;20187;-69
2023/06/13 00:25:48;;;;;;;20.02;12.88;;;18.60;99.90;;;;;;5032287;28;20205;-69
2023/06/13 00:28:13;;;;;;;18.20;12.73;;;18.70;99.90;;;;;;4999282;28;20189;-69
2023/06/13 00:30:39;;;;;;;15.90;12.88;;;18.60;99.90;;;;;;5015240;28;20273;-69
2023/06/13 00:33:05;;;;;;;18.27;12.43;;;18.60;99.90;;;;;;5024455;28;20209;-69
2023/06/13 00:35:31;;;;;;;19.70;11.70;;;18.60;99.90;;;;;;5033187;28;20220;-69
2023/06/13 00:37:57;;;;;;;18.52;13.15;;;18.60;99.90;;;;;;5023186;28;20171;-70
2023/06/13 00:40:24;;;;;;;19.38;13.50;;;18.60;99.90;;;;;;5011857;28;20174;-69
2023/06/13 00:42:53;;;;;;;18.67;13.45;;;18.50;99.90;;;;;;5012112;28;20194;-69
2023/06/13 00:45:24;;;;;;;18.92;13.27;;;18.50;99.90;;;;;;5009231;28;20190;-69
2023/06/13 00:47:55;;;;;;;17.77;12.43;;;18.40;99.90;;;;;;5002773;28;20293;-68
2023/06/13 00:50:30;;;;;;;19.65;13.30;;;18.50;99.90;;;;;;5013236;28;20214;-67
2023/06/13 00:52:58;;;;;;;21.80;13.23;;;18.40;99.90;;;;;;5004330;28;20673;-66
2023/06/13 00:55:25;;;;;;;20.42;13.43;;;18.40;99.90;;;;;;4987119;28;20593;-69
2023/06/13 00:57:55;;;;;;;20.40;13.70;;;18.40;99.90;;;;;;5012868;28;20163;-69
2023/06/13 01:00:26;;;;;;;18.73;13.95;;;18.30;99.90;;;;;;5012159;28;20637;-69
2023/06/13 01:02:58;;;;;;;18.27;13.68;;;18.30;99.90;;;;;;5011600;28;20178;-69
2023/06/13 01:05:31;;;;;;;17.30;13.32;;;18.30;99.90;;;;;;4993952;28;20834;-69
2023/06/13 01:07:59;;;;;;;20.63;14.15;;;18.30;99.90;;;;;;5011627;28;20162;-69
2023/06/13 01:10:29;;;;;;;17.23;13.15;;;18.20;99.90;;;;;;5011585;28;20198;-70
2023/06/13 01:13:27;;;;;;;15.38;13.23;;;18.30;99.90;;;;;;5011226;28;20221;-69
2023/06/13 01:16:33;;;;;;;15.57;12.00;;;18.30;99.90;;;;;;5011399;28;20182;-70
2023/06/13 01:19:00;;;;;;;19.02;12.38;;;18.20;99.90;;;;;;5011315;28;20257;-70
2023/06/13 01:21:26;;;;;;;14.68;11.93;;;18.20;99.90;;;;;;5011225;28;20185;-70
2023/06/13 01:24:02;;;;;;;15.73;12.63;;;18.10;99.90;;;;;;5011224;28;20175;-69
2023/06/13 01:26:47;;;;;;;17.88;12.27;;;18.10;99.90;;;;;;5011144;28;20166;-69
2023/06/13 01:29:15;;;;;;;16.08;11.75;;;18.00;99.90;;;;;;5011031;28;20666;-71
2023/06/13 01:31:43;;;;;;;19.77;12.00;;;17.90;99.90;;;;;;5010873;28;20220;-71
2023/06/13 01:34:09;;;;;;;16.98;12.43;;;17.80;99.90;;;;;;5011050;28;20206;-71
2023/06/13 01:36:37;;;;;;;17.88;11.52;;;17.80;99.90;;;;;;5011141;28;20201;-75
2023/06/13 01:39:02;;;;;;;16.83;12.45;;;17.80;99.90;;;;;;5011377;28;20250;-69
2023/06/13 01:41:28;;;;;;;17.95;12.77;;;17.80;99.90;;;;;;5012093;28;20651;-69
2023/06/13 01:43:54;;;;;;;15.77;12.18;;;17.80;99.90;;;;;;5021907;28;20636;-68
2023/06/13 01:46:28;;;;;;;20.35;13.10;;;17.70;99.90;;;;;;5010789;28;20203;-68
2023/06/13 01:49:05;;;;;;;18.05;12.90;;;17.70;99.90;;;;;;5018485;28;20177;-69
2023/06/13 01:51:41;;;;;;;16.15;12.82;;;17.70;99.90;;;;;;5037694;28;20217;-69
2023/06/13 01:54:14;;;;;;;17.33;12.60;;;17.70;99.90;;;;;;5017990;28;20276;-70
2023/06/13 01:56:42;;;;;;;16.48;12.35;;;17.70;99.90;;;;;;4997423;28;20170;-69
2023/06/13 01:59:11;;;;;;;21.15;13.15;;;17.70;99.90;;;;;;5014574;28;20182;-70
2023/06/13 02:01:39;;;;;;;15.68;13.15;;;17.70;99.90;;;;;;5014643;28;20636;-69
2023/06/13 02:04:05;;;;;;;21.15;12.20;;;17.70;99.90;;;;;;5014620;28;20174;-69
2023/06/13 02:06:32;;;;;;;16.63;12.90;;;17.70;99.90;;;;;;5014635;28;20265;-67
2023/06/13 02:08:58;;;;;;;19.33;14.13;;;17.80;99.90;;;;;;5014565;28;20198;-72
2023/06/13 02:11:25;;;;;;;19.67;14.32;;;17.80;99.90;;;;;;5014552;28;20228;-72
2023/06/13 02:13:50;;;;;;;21.38;13.70;;;17.80;99.90;;;;;;5014632;28;20210;-70
2023/06/13 02:16:25;;;;;;;18.75;14.32;;;17.90;99.90;;;;;;5014362;28;20237;-68
2023/06/13 02:18:51;;;;;;;18.90;14.18;;;17.80;99.90;;;;;;5014271;28;20184;-67
2023/06/13 02:21:17;;;;;;;16.55;13.25;;;17.70;99.90;;;;;;5014300;28;20258;-67
2023/06/13 02:23:42;;;;;;;14.98;12.18;;;17.70;99.90;;;;;;5014298;28;20768;-68
2023/06/13 02:26:08;;;;;;;16.23;11.77;;;17.60;99.90;;;;;;5014227;28;20231;-68
2023/06/13 02:28:34;;;;;;;16.15;11.90;;;17.60;99.90;;;;;;5014248;28;20245;-67
2023/06/13 02:31:00;;;;;;;18.02;12.80;;;17.60;99.90;;;;;;5014123;28;20633;-68
2023/06/13 02:33:26;;;;;;;16.25;12.18;;;17.50;99.90;;;;;;5014100;28;20217;-71
2023/06/13 02:35:51;;;;;;;20.98;13.30;;;17.50;99.90;;;;;;5014238;28;20641;-71
2023/06/13 02:38:18;;;;;;;18.42;13.93;;;17.50;99.90;;;;;;5014095;28;20278;-70
2023/06/13 02:40:44;;;;;;;19.52;13.55;;;17.50;99.90;;;;;;5014174;28;20171;-71
2023/06/13 02:43:10;;;;;;;19.55;13.45;;;17.50;99.90;;;;;;4996342;28;20208;-71
2023/06/13 02:45:36;;;;;;;16.42;13.15;;;17.50;99.90;;;;;;5014368;28;20167;-71
2023/06/13 02:48:02;;;;;;;17.10;13.32;;;17.50;99.90;;;;;;5013659;28;20202;-71
2023/06/13 02:50:27;;;;;;;15.95;13.18;;;17.50;99.90;;;;;;5032963;28;20236;-70
2023/06/13 02:52:53;;;;;;;19.02;13.30;;;17.50;99.90;;;;;;5033094;28;20698;-70
2023/06/13 02:55:20;;;;;;;18.65;12.75;;;17.50;99.90;;;;;;5031735;28;20177;-70
2023/06/13 02:57:46;;;;;;;18.48;13.60;;;17.40;99.90;;;;;;5032708;28;20173;-70
2023/06/13 03:00:13;;;;;;;20.55;13.20;;;17.50;99.90;;;;;;5020033;28;20205;-70
2023/06/13 03:02:39;;;;;;;19.98;14.60;;;17.50;99.90;;;;;;5032109;28;20268;-68
2023/06/13 03:05:10;;;;;;;18.48;13.85;;;17.50;99.90;;;;;;5033065;28;20185;-68
2023/06/13 03:07:36;;;;;;;18.27;14.82;;;17.40;99.90;;;;;;5032775;28;20664;-69
2023/06/13 03:10:06;;;;;;;18.95;14.70;;;17.40;99.90;;;;;;5028302;28;20660;-69
2023/06/13 03:12:31;;;;;;;19.65;14.65;;;17.50;99.90;;;;;;5033043;28;20210;-68
2023/06/13 03:14:57;;;;;;;21.45;15.18;;;17.50;99.90;;;;;;5033024;28;20518;-69
2023/06/13 03:17:23;;;;;;;18.55;13.88;;;17.50;99.90;;;;;;5033090;28;20185;-69
2023/06/13 03:19:50;;;;;;;18.65;13.52;;;17.50;99.90;;;;;;5014121;28;20204;-73
2023/06/13 03:22:16;;;;;;;18.13;14.57;;;17.50;99.90;;;;;;4998054;28;20185;-73
2023/06/13 03:24:42;;;;;;;17.95;14.43;;;17.50;99.90;;;;;;5013208;28;20533;-73
2023/06/13 03:27:09;;;;;;;15.73;13.27;;;17.50;99.90;;;;;;5013243;28;20403;-72
2023/06/13 03:29:35;;;;;;;21.40;13.88;;;17.50;99.90;;;;;;5032614;28;20240;-72
2023/06/13 03:32:01;;;;;;;19.60;13.35;;;17.50;99.90;;;;;;5036648;28;20179;-72
2023/06/13 03:34:28;;;;;;;20.77;14.18;;;17.40;99.90;;;;;;5015445;28;20206;-71
2023/06/13 03:36:54;;;;;;;19.10;13.40;;;17.40;99.90;;;;;;5016160;28;20197;-75
2023/06/13 03:39:19;;;;;;;17.35;13.38;;;17.40;99.90;;;;;;5023079;28;20655;-75
2023/06/13 03:41:45;;;;;;;16.17;13.18;;;17.40;99.90;;;;;;5033849;28;20182;-76
2023/06/13 03:44:11;;;;;;;14.88;12.48;;;17.40;99.90;;;;;;5032573;28;20224;-76
2023/06/13 03:46:37;;;;;;;19.30;13.40;;;17.30;99.90;;;;;;5032328;28;20178;-76
2023/06/13 03:49:02;;;;;;;16.83;13.38;;;17.30;99.90;;;;;;5025357;28;20206;-75
2023/06/13 03:51:28;;;;;;;19.05;13.95;;;17.30;99.90;;;;;;5015845;28;20710;-76
2023/06/13 03:53:54;;;;;;;19.92;14.63;;;17.20;99.90;;;;;;5012641;28;20206;-76
2023/06/13 03:56:19;;;;;;;19.20;13.80;;;17.20;99.90;;;;;;5012630;28;20166;-74
2023/06/13 03:58:45;;;;;;;18.70;14.70;;;17.20;99.90;;;;;;5012480;28;20652;-76
2023/06/13 04:01:11;;;;;;;19.70;13.52;;;17.10;99.90;;;;;;5012643;28;20198;-69
2023/06/13 04:03:39;;;;;;;20.42;13.80;;;17.10;99.90;;;;;;5012526;28;20189;-69
2023/06/13 04:06:08;;;;;;;17.33;14.15;;;17.10;99.90;;;;;;5012456;28;20179;-69
2023/06/13 04:08:38;;;;;;;18.33;13.90;;;17.00;99.90;;;;;;5012413;28;20174;-69
2023/06/13 04:11:04;;;;;;;21.25;13.77;;;17.30;99.90;;;;;;4995031;28;20528;-70
2023/06/13 04:13:30;;;;;;;17.10;13.18;;;17.00;99.90;;;;;;5012044;28;20213;-71
2023/06/13 04:15:56;;;;;;;19.63;14.13;;;17.00;99.90;;;;;;5012281;28;20163;-70
2023/06/13 04:18:23;;;;;;;16.95;13.90;;;17.00;99.90;;;;;;5012312;28;20167;-71
2023/06/13 04:20:51;;;;;;;19.08;13.55;;;17.00;99.90;;;;;;5012222;28;20246;-70
2023/06/13 04:23:17;;;;;;;18.40;14.13;;;17.00;99.90;;;;;;4994318;28;20171;-70
2023/06/13 04:25:43;;;;;;;20.33;14.07;;;16.90;99.90;;;;;;5012006;28;20655;-71
2023/06/13 04:28:10;;;;;;;17.45;14.20;;;16.90;99.90;;;;;;5012053;28;20179;-70
2023/06/13 04:30:36;;;;;;;17.83;14.90;;;16.90;99.90;;;;;;5012026;28;20170;-72
2023/06/13 04:33:05;;;;;;;17.02;13.98;;;16.90;99.90;;;;;;5011806;28;20215;-69
2023/06/13 04:35:37;;;;;;;18.30;14.25;;;16.90;99.90;;;;;;5011938;28;20712;-69
2023/06/13 04:38:03;;;;;;;20.17;14.18;;;16.90;99.90;;;;;;5012017;28;20273;-70
2023/06/13 04:40:31;;;;;;;20.10;14.25;;;16.80;99.90;;;;;;5011700;28;20179;-69
2023/06/13 04:42:58;;;;;;;19.75;14.10;;;16.90;99.90;;;;;;4994502;28;20186;-70
2023/06/13 04:45:24;;;;;;;22.33;14.57;;;16.90;99.90;;;;;;5011776;28;20167;-68
2023/06/13 04:47:51;;;;;;;18.83;13.82;;;16.90;99.90;;;;;;5011432;28;20175;-68
2023/06/13 04:50:19;;;;;;;20.50;14.82;;;16.90;99.90;;;;;;4993710;28;20229;-68
2023/06/13 04:52:45;;;;;;;21.35;14.00;;;16.90;99.90;;;;;;5014944;28;20210;-70
2023/06/13 04:55:11;;;;;;;19.00;13.52;;;16.90;99.90;;;;;;5028120;28;20181;-69
2023/06/13 04:57:37;;;;;;;16.83;13.40;;;16.90;99.90;;;;;;5022624;28;20174;-68
2023/06/13 05:00:07;;;;;;;18.95;12.60;;;16.90;99.90;;;;;;5011447;28;20190;-69
2023/06/13 05:02:35;;;;;;;18.35;13.68;;;16.90;99.90;;;;;;5011592;28;20170;-69
2023/06/13 05:05:04;;;;;;;17.40;12.50;;;16.90;99.90;;;;;;5011705;28;20175;-70
2023/06/13 05:07:30;;;;;;;16.80;12.82;;;16.90;99.90;;;;;;5011443;28;20249;-69
2023/06/13 05:09:55;;;;;;;17.90;13.50;;;16.90;99.90;;;;;;5011384;28;20194;-67
2023/06/13 05:12:22;;;;;;;20.08;13.95;;;16.90;99.90;;;;;;5011284;28;20308;-69
2023/06/13 05:14:48;;;;;;;19.42;12.85;;;17.00;99.90;;;;;;5011288;28;20198;-72
2023/06/13 05:17:14;;;;;;;20.63;13.50;;;17.00;99.90;;;;;;5011400;28;20260;-69
2023/06/13 05:19:40;;;;;;;15.27;12.48;;;17.00;99.90;;;;;;5011578;28;20256;-72
2023/06/13 05:22:06;;;;;;;20.02;12.82;;;17.00;99.90;;;;;;5011263;28;20163;-70
2023/06/13 05:24:32;;;;;;;15.90;12.80;;;17.00;99.90;;;;;;5012524;28;20175;-70
2023/06/13 05:26:59;;;;;;;16.20;12.45;;;17.00;99.90;;;;;;5015420;28;20167;-70
2023/06/13 05:29:28;;;;;;;16.15;12.77;;;17.00;99.90;;;;;;5015441;28;20190;-68
2023/06/13 05:31:54;;;;;;;19.77;14.00;;;17.10;99.90;;;;;;5015164;28;20163;-68
2023/06/13 05:34:20;;;;;;;16.77;12.73;;;17.10;99.90;;;;;;5015297;28;20268;-74
2023/06/13 05:36:46;;;;;;;20.73;13.73;;;17.20;99.90;;;;;;5013319;28;20258;-74
2023/06/13 05:39:15;;;;;;;16.70;13.13;;;17.20;99.90;;;;;;5003967;28;20264;-76
2023/06/13 05:41:41;;;;;;;19.38;14.02;;;17.30;99.90;;;;;;5015075;28;20170;-75
2023/06/13 05:44:07;;;;;;;17.92;13.43;;;17.40;99.90;;;;;;5000765;28;20266;-75
2023/06/13 05:46:32;;;;;;;22.55;14.40;;;17.40;99.90;;;;;;4995320;28;20724;-75
2023/06/13 05:48:58;;;;;;;18.25;13.75;;;17.50;99.90;;;;;;4997614;28;20218;-75
2023/06/13 05:51:24;;;;;;;19.88;13.70;;;17.50;99.90;;;;;;4999782;28;20715;-75
2023/06/13 05:53:50;;;;;;;18.73;13.25;;;17.60;99.90;;;;;;4997519;28;20578;-75
2023/06/13 05:56:16;;;;;;;17.85;13.77;;;17.70;99.90;;;;;;5020331;28;20170;-75
2023/06/13 05:58:43;;;;;;;20.00;13.65;;;17.70;99.90;;;;;;5015748;28;20544;-75
2023/06/13 06:01:10;;;;;;;17.13;13.65;;;17.80;99.90;;;;;;5015245;28;20170;-75
2023/06/13 06:03:36;;;;;;;19.95;13.55;;;17.80;99.90;;;;;;5015509;28;20182;-74
2023/06/13 06:06:02;;;;;;;21.83;14.23;;;17.90;99.90;;;;;;5041364;28;20228;-75
2023/06/13 06:08:28;;;;;;;18.38;13.45;;;18.00;99.90;;;;;;5028492;28;20169;-74
2023/06/13 06:10:54;;;;;;;19.42;13.90;;;18.00;99.90;;;;;;5025850;28;20711;-74
2023/06/13 06:13:19;;;;;;;21.58;13.65;;;18.10;99.90;;;;;;5022254;28;20510;-74
2023/06/13 06:15:45;;;;;;;22.58;12.65;;;18.20;99.90;;;;;;5016851;28;20583;-72
2023/06/13 06:18:11;;;;;;;21.73;12.50;;;18.30;99.90;;;;;;5016417;28;20203;-72
2023/06/13 06:20:37;;;;;;;19.52;13.05;;;18.50;99.90;;;;;;5029652;28;20182;-71
2023/06/13 06:23:03;;;;;;;18.38;12.23;;;18.50;99.90;;;;;;5026314;28;20182;-74
2023/06/13 06:25:29;;;;;;;17.55;12.77;;;18.60;99.90;;;;;;5015292;28;20178;-73
2023/06/13 06:27:57;;;;;;;17.88;12.65;;;18.60;99.90;;;;;;5014315;28;20171;-73
2023/06/13 06:30:23;;;;;;;19.08;13.02;;;18.70;99.90;;;;;;5014168;28;20197;-74
2023/06/13 06:32:49;;;;;;;20.65;12.65;;;18.80;99.90;;;;;;5014493;28;20249;-74
2023/06/13 06:35:14;;;;;;;18.20;12.68;;;18.90;99.90;;;;;;5013976;28;20198;-70
2023/06/13 06:37:42;;;;;;;17.67;12.88;;;19.00;99.90;;;;;;5014243;28;20198;-73
2023/06/13 06:40:09;;;;;;;20.25;12.13;;;19.10;99.90;;;;;;5014065;28;20680;-72
2023/06/13 06:42:35;;;;;;;23.45;12.15;;;19.20;99.90;;;;;;5010832;28;20554;-71
2023/06/13 06:45:02;;;;;;;15.52;10.95;;;19.20;99.90;;;;;;5007561;28;20187;-72
2023/06/13 06:47:27;;;;;;;16.35;11.63;;;19.30;99.90;;;;;;5020207;28;20176;-70
2023/06/13 06:49:53;;;;;;;21.13;11.68;;;19.40;99.90;;;;;;5033425;28;20297;-72
2023/06/13 06:52:19;;;;;;;16.88;10.57;;;19.50;99.90;;;;;;5027052;28;20174;-72
2023/06/13 06:54:44;;;;;;;17.40;11.48;;;19.60;99.90;;;;;;5014635;28;20182;-72
2023/06/13 06:57:10;;;;;;;18.60;10.93;;;19.60;99.90;;;;;;5013658;28;20213;-71
2023/06/13 06:59:36;;;;;;;12.85;9.48;;;19.70;99.90;;;;;;5013602;28;20174;-72
2023/06/13 07:02:01;;;;;;;12.57;9.13;;;19.80;99.90;;;;;;5016707;28;20636;-72
2023/06/13 07:04:27;;;;;;;14.75;10.63;;;19.80;99.90;;;;;;5033432;28;20166;-70
2023/06/13 07:06:52;;;;;;;18.00;9.95;;;20.00;99.90;;;;;;5033270;28;20178;-67
2023/06/13 07:09:18;;;;;;;18.02;9.50;;;20.00;99.90;;;;;;5021671;28;20649;-66
2023/06/13 07:11:44;;;;;;;12.43;8.68;;;20.20;99.90;;;;;;5019410;28;20177;-66
2023/06/13 07:14:10;;;;;;;14.77;9.52;;;20.20;99.90;;;;;;5032993;28;20224;-65
2023/06/13 07:16:36;;;;;;;14.43;8.10;;;20.30;99.90;;;;;;5032894;28;20224;-66
2023/06/13 07:19:01;;;;;;;13.55;7.72;;;20.30;99.90;;;;;;5032727;28;20186;-66
2023/06/13 07:21:27;;;;;;;11.60;7.80;;;20.30;99.90;;;;;;5029474;28;20253;-67
2023/06/13 07:23:52;;;;;;;11.52;7.40;;;20.40;99.90;;;;;;5012888;28;20210;-67
2023/06/13 07:26:18;;;;;;;12.27;8.07;;;20.50;99.90;;;;;;5013248;28;20182;-66
2023/06/13 07:28:44;;;;;;;14.02;7.85;;;20.50;99.90;;;;;;5013048;28;20175;-66
2023/06/13 07:31:09;;;;;;;13.88;7.43;;;20.50;99.90;;;;;;5013302;28;20679;-64
2023/06/13 07:33:35;;;;;;;14.90;8.57;;;20.50;99.90;;;;;;5032574;28;20300;-63
2023/06/13 07:36:00;;;;;;;13.95;8.00;;;20.60;99.90;;;;;;5027051;28;20180;-68
2023/06/13 07:38:26;;;;;;;13.85;8.10;;;20.70;99.90;;;;;;5020661;28;20179;-68
2023/06/13 07:40:52;;;;;;;14.63;7.57;;;20.70;99.90;;;;;;5012907;28;20166;-68
2023/06/13 07:43:18;;;;;;;13.32;7.97;;;20.80;99.90;;;;;;5012563;28;20183;-69
2023/06/13 07:45:46;;;;;;;10.70;7.47;;;20.90;99.90;;;;;;5025307;28;20176;-69
2023/06/13 07:48:12;;;;;;;12.82;7.82;;;20.90;99.90;;;;;;5029910;28;20185;-68
2023/06/13 07:50:38;;;;;;;11.45;7.55;;;21.10;99.90;;;;;;5032048;28;20214;-68
2023/06/13 07:53:03;;;;;;;11.27;7.57;;;21.10;99.90;;;;;;5014734;28;20706;-68
2023/06/13 07:55:29;;;;;;;13.05;7.13;;;21.20;99.90;;;;;;5030746;28;20247;-67
2023/06/13 07:57:55;;;;;;;14.68;7.38;;;;;;;;;;5032054;28;20336;-69
2023/06/13 08:00:20;;;;;;;14.52;7.72;;;21.40;99.90;;;;;;5032429;28;20654;-64
2023/06/13 08:02:46;;;;;;;12.25;7.65;;;21.50;99.90;;;;;;5031959;28;20177;-64
2023/06/13 08:05:14;;;;;;;13.98;8.07;;;21.60;99.90;;;;;;5032057;28;20249;-64
2023/06/13 08:07:40;;;;;;;14.65;7.43;;;21.60;99.90;;;;;;5020890;28;20241;-64
2023/06/13 08:10:06;;;;;;;13.07;6.95;;;21.70;99.90;;;;;;5012320;28;20174;-65
2023/06/13 08:12:32;;;;;;;13.98;7.07;;;21.80;99.90;;;;;;5011765;28;20206;-65
2023/06/13 08:14:57;;;;;;;11.70;6.95;;;21.80;99.90;;;;;;5005369;28;20190;-65
2023/06/13 08:17:24;;;;;;;12.77;7.72;;;21.80;99.90;;;;;;5008874;28;20225;-65
2023/06/13 08:19:50;;;;;;;17.50;6.72;;;21.80;99.90;;;;;;5011707;28;20273;-65
2023/06/13 08:22:17;;;;;;;12.98;7.20;;;22.00;99.90;;;;;;5017754;28;20209;-65
2023/06/13 08:24:43;;;;;;;13.40;7.68;;;22.10;99.90;;;;;;5001022;28;20282;-65
2023/06/13 08:27:12;;;;;;;10.07;7.10;;;22.10;99.90;;;;;;5019722;28;20174;-64
2023/06/13 08:29:37;;;;;;;14.32;7.75;;;22.20;99.90;;;;;;5013586;28;20182;-65
2023/06/13 08:32:03;;;;;;;18.02;7.32;;;22.30;99.90;;;;;;5012041;28;20576;-65
2023/06/13 08:34:30;;;;;;;14.50;7.05;;;22.40;99.90;;;;;;5022134;28;20306;-65
2023/06/13 08:36:56;;;;;;;14.07;7.20;;;22.70;99.90;;;;;;5031535;28;20253;-66
2023/06/13 08:39:22;;;;;;;15.13;7.80;;;22.90;99.90;;;;;;5025552;28;20512;-66
2023/06/13 08:41:49;;;;;;;11.40;7.20;;;22.80;99.90;;;;;;5013650;28;20213;-67
2023/06/13 08:44:16;;;;;;;14.35;6.90;;;22.90;99.90;;;;;;5011701;28;20703;-67
2023/06/13 08:46:41;;;;;;;14.73;7.28;;;22.90;99.90;;;;;;5015334;28;20185;-64
2023/06/13 08:49:08;;;;;;;18.02;6.93;;;23.10;99.90;;;;;;5011635;28;20182;-63
2023/06/13 08:51:34;;;;;;;18.40;7.60;;;23.20;99.90;;;;;;5011381;28;20226;-64
2023/06/13 08:54:02;;;;;;;16.30;8.00;;;23.30;99.90;;;;;;5011054;28;20680;-64
2023/06/13 08:56:33;;;;;;;11.10;6.97;;;23.40;99.90;;;;;;4993731;28;20542;-63
2023/06/13 08:59:07;;;;;;;14.82;7.22;;;23.50;99.90;;;;;;5012469;28;20652;-63
2023/06/13 09:01:34;;;;;;;15.23;7.35;;;23.50;99.90;;;;;;5017411;28;20181;-63
2023/06/13 09:04:00;;;;;;;12.73;7.50;;;23.70;99.90;;;;;;5013252;28;20170;-63
2023/06/13 09:06:27;;;;;;;21.70;7.82;;;23.80;99.90;;;;;;5018572;28;20193;-63
2023/06/13 09:08:55;;;;;;;10.18;6.88;;;23.80;99.90;;;;;;5015265;28;20182;-63
2023/06/13 09:11:20;;;;;;;9.75;7.65;;;23.90;99.90;;;;;;5011502;28;20185;-63
2023/06/13 09:13:48;;;;;;;16.45;8.50;;;24.00;99.90;;;;;;5010614;28;20572;-63
2023/06/13 09:16:15;;;;;;;10.93;7.53;;;24.00;99.90;;;;;;4993244;28;20236;-63
2023/06/13 09:18:43;;;;;;;15.93;7.13;;;24.20;99.90;;;;;;5011401;28;20170;-64
2023/06/13 09:21:10;;;;;;;12.05;6.95;;;24.20;99.90;;;;;;5011231;28;20179;-64
2023/06/13 09:23:36;;;;;;;12.77;7.82;;;24.30;99.90;;;;;;5011314;28;20174;-63
2023/06/13 09:26:02;;;;;;;12.80;7.72;;;24.50;99.90;;;;;;5011215;28;20185;-63
2023/06/13 09:28:42;;;;;;;18.27;7.78;;;24.60;99.90;;;;;;5011206;28;20181;-63
2023/06/13 09:31:08;;;;;;;14.65;7.68;;;24.80;99.90;;;;;;5011148;28;20167;-64
2023/06/13 09:33:34;;;;;;;12.43;7.30;;;25.00;99.90;;;;;;5011043;28;20297;-64
2023/06/13 09:36:00;;;;;;;13.23;8.18;;;25.10;99.90;;;;;;5011404;28;20254;-64
2023/06/13 09:38:26;;;;;;;12.65;7.38;;;25.00;99.90;;;;;;5010988;28;20608;-64
2023/06/13 09:40:54;;;;;;;11.13;7.90;;;25.10;99.90;;;;;;4993573;28;20213;-64
2023/06/13 09:43:24;;;;;;;15.88;7.70;;;25.30;99.90;;;;;;5011025;28;20465;-63
2023/06/13 09:45:53;;;;;;;9.68;7.20;;;25.60;99.90;;;;;;5010900;28;20220;-63
2023/06/13 09:48:20;;;;;;;10.38;6.90;;;25.80;99.90;;;;;;5010960;28;20649;-64
2023/06/13 09:50:50;;;;;;;12.63;7.25;;;26.10;99.90;;;;;;5010878;28;20324;-63
2023/06/13 09:53:16;;;;;;;15.45;7.45;;;26.00;99.90;;;;;;5010739;28;20210;-64
2023/06/13 09:55:42;;;;;;;16.73;7.05;;;26.40;99.90;;;;;;5011734;28;20166;-63
2023/06/13 09:58:08;;;;;;;10.48;6.65;;;26.50;99.90;;;;;;5010988;28;20178;-63
2023/06/13 10:00:34;;;;;;;10.80;6.65;;;26.70;99.90;;;;;;5010783;28;20641;-63
2023/06/13 10:03:01;;;;;;;11.95;7.03;;;27.10;99.90;;;;;;5014017;28;20257;-64
2023/06/13 10:05:26;;;;;;;18.77;7.45;;;26.90;99.90;;;;;;5010587;28;20178;-63
2023/06/13 10:07:52;;;;;;;11.15;7.57;;;27.20;99.90;;;;;;5020686;28;20188;-63
2023/06/13 10:10:18;;;;;;;13.43;7.68;;;27.20;99.90;;;;;;5013171;28;20667;-63
2023/06/13 10:12:56;;;;;;;15.18;7.68;;;27.30;99.90;;;;;;5033334;28;20214;-63
2023/06/13 10:15:33;;;;;;;11.25;7.15;;;27.10;99.90;;;;;;4997283;28;20244;-63
2023/06/13 10:18:05;;;;;;;17.13;7.20;;;27.80;99.90;;;;;;5013132;28;20182;-63
2023/06/13 10:20:32;;;;;;;13.73;7.20;;;27.90;99.90;;;;;;4998894;28;20248;-63
2023/06/13 10:22:59;;;;;;;9.13;6.57;;;27.90;99.90;;;;;;5015543;28;20186;-64
2023/06/13 10:25:30;;;;;;;10.57;6.35;;;28.10;99.90;;;;;;5014310;28;20167;-64
2023/06/13 10:28:04;;;;;;;16.05;7.63;;;28.60;99.90;;;;;;4997170;28;20171;-63
2023/06/13 10:30:33;;;;;;;12.55;7.80;;;28.50;99.90;;;;;;5014171;28;20712;-63
2023/06/13 10:33:16;;;;;;;12.52;7.00;;;28.70;99.90;;;;;;5014062;28;20221;-64
2023/06/13 10:35:57;;;;;;;10.25;7.35;;;29.10;99.90;;;;;;5014221;28;20205;-64
2023/06/13 10:38:59;;;;;;;10.15;7.25;;;28.70;99.90;;;;;;5014176;28;20175;-63
2023/06/13 10:41:58;;;;;;;10.90;7.50;;;29.20;99.90;;;;;;5015835;28;20193;-64
2023/06/13 10:44:31;;;;;;;13.95;7.40;;;29.50;99.90;;;;;;5033568;28;20182;-64
2023/06/13 10:46:57;;;;;;;13.93;7.65;;;29.90;99.90;;;;;;5033616;28;20257;-64
2023/06/13 10:49:37;;;;;;;14.15;8.18;;;29.70;99.90;;;;;;5032553;28;20264;-64
2023/06/13 10:52:04;;;;;;;12.25;7.97;;;29.70;99.90;;;;;;5033643;28;20251;-64
2023/06/13 10:54:30;;;;;;;11.73;7.45;;;29.40;99.90;;;;;;5015578;28;20220;-64
2023/06/13 10:57:00;;;;;;;14.52;7.45;;;29.70;99.90;;;;;;5033452;28;20174;-65
2023/06/13 10:59:35;;;;;;;10.88;7.97;;;29.80;99.90;;;;;;5033669;28;20178;-64
2023/06/13 11:02:01;;;;;;;13.60;8.00;;;29.80;99.90;;;;;;5026968;28;20641;-65
2023/06/13 11:04:29;;;;;;;15.95;8.57;;;30.20;99.90;;;;;;5013336;28;20190;-63
2023/06/13 11:07:24;;;;;;;11.57;8.13;;;30.40;99.90;;;;;;5013334;28;20637;-65
2023/06/13 11:10:03;;;;;;;11.82;7.55;;;30.30;99.90;;;;;;5004486;28;20433;-64
2023/06/13 11:12:29;;;;;;;16.13;7.63;;;29.80;99.90;;;;;;4993792;28;20269;-62
2023/06/13 11:15:00;;;;;;;12.43;7.43;;;30.20;99.90;;;;;;5009126;28;20175;-64
2023/06/13 11:17:26;;;;;;;18.15;7.57;;;30.50;99.90;;;;;;5013331;28;20166;-64
2023/06/13 11:19:53;;;;;;;13.23;7.25;;;30.80;99.90;;;;;;5013018;28;20174;-62
2023/06/13 11:22:22;;;;;;;14.63;7.93;;;30.90;99.90;;;;;;5012116;28;20171;-64
2023/06/13 11:24:49;;;;;;;13.57;8.25;;;31.30;99.90;;;;;;5013088;28;20179;-64
2023/06/13 11:27:16;;;;;;;17.50;9.45;;;31.30;99.90;;;;;;4996081;28;20544;-64
2023/06/13 11:29:45;;;;;;;10.82;7.82;;;31.10;99.90;;;;;;4993464;28;20194;-63
2023/06/13 11:32:12;;;;;;;12.05;7.70;;;30.90;99.90;;;;;;4993386;28;20701;-63
2023/06/13 11:34:48;;;;;;;14.70;6.88;;;31.10;99.90;;;;;;4976019;28;20246;-63
2023/06/13 11:37:45;;;;;;;13.68;7.72;;;31.60;99.90;;;;;;4993295;28;20175;-64
2023/06/13 11:40:25;;;;;;;11.32;7.75;;;31.50;99.90;;;;;;4993205;28;20237;-64
2023/06/13 11:42:51;;;;;;;16.90;8.05;;;31.80;98.60;;;;;;4993197;28;20269;-63
2023/06/13 11:45:21;;;;;;;13.93;7.78;;;31.70;95.40;;;;;;4999190;28;20273;-63
2023/06/13 11:47:57;;;;;;;17.85;8.23;;;31.40;90.00;;;;;;5012752;28;20207;-64
2023/06/13 11:50:25;;;;;;;12.50;8.05;;;31.50;94.20;;;;;;5012729;28;20217;-64
2023/06/13 11:53:07;;;;;;;20.35;8.38;;;31.40;97.20;;;;;;5012694;28;20199;-64
2023/06/13 11:55:34;;;;;;;16.40;7.50;;;31.80;99.90;;;;;;5013703;28;20257;-64
2023/06/13 11:58:00;;;;;;;10.70;7.70;;;32.00;85.30;;;;;;5012111;28;20179;-64
2023/06/13 12:00:28;;;;;;;18.98;7.88;;;32.20;69.90;;;;;;5012804;28;20637;-64
2023/06/13 12:02:57;;;;;;;12.35;7.20;;;32.60;67.20;;;;;;5024941;28;20187;-64
2023/06/13 12:05:24;;;;;;;13.77;6.97;;;32.70;72.00;;;;;;5012273;28;20265;-64
2023/06/13 12:07:50;;;;;;;12.38;7.38;;;32.70;55.60;;;;;;5012301;28;20257;-64
2023/06/13 12:10:19;;;;;;;11.90;7.72;;;32.60;49.00;;;;;;5012995;28;20278;-63
2023/06/13 12:12:58;;;;;;;10.85;6.88;;;32.00;45.70;;;;;;5021755;28;20221;-63
2023/06/13 12:15:27;;;;;;;13.77;6.45;;;32.90;41.50;;;;;;5031994;28;20173;-63
2023/06/13 12:17:59;;;;;;;9.98;6.40;;;32.90;25.80;;;;;;5032005;28;20169;-64
2023/06/13 12:20:25;;;;;;;9.68;6.53;;;33.10;15.40;;;;;;5023551;28;20182;-64
2023/06/13 12:23:01;;;;;;;11.30;6.07;;;32.80;4.40;;;;;;5012095;28;20209;-64
2023/06/13 12:25:28;;;;;;;11.43;6.50;;;33.10;3.30;;;;;;5012272;28;20170;-64
2023/06/13 12:27:55;;;;;;;13.75;6.03;;;33.40;4.20;;;;;;5015225;28;20174;-63
2023/06/13 12:30:21;;;;;;;8.73;5.32;;;33.40;1.90;;;;;;5012008;28;20177;-64
2023/06/13 12:32:48;;;;;;;12.40;5.50;;;34.00;1.00;;;;;;5014198;28;20249;-63
2023/06/13 12:35:20;;;;;;;11.00;5.50;;;33.30;1.00;;;;;;5020614;28;20182;-63
2023/06/13 12:37:59;;;;;;;6.82;5.28;;;33.20;1.00;;;;;;5006339;28;20175;-63